sensor_id;sensor_type;location;lat;lon;timestamp;temperature;humidity
1956;DHT22;978;48.314;11.562;2022-11-14T00:00:43;22.40;74.80
1956;DHT22;978;48.314;11.562;2022-11-14T00:03:18;22.40;74.80
1956;DHT22;978;48.314;11.562;2022-11-14T00:05:46;22.40;74.80
1956;DHT22;978;48.314;11.562;2022-11-14T00:08:15;22.40;74.80
1956;DHT22;978;48.314;11.562;2022-11-14T00:10:45;22.40;74.80
1956;DHT22;978;48.314;11.562;2022-11-14T00:13:12;22.40;74.80
1956;DHT22;978;48.314;11.562;2022-11-14T00:15:40;22.40;74.80
1956;DHT22;978;48.314;11.562;2022-11-14T00:18:07;22.40;74.80
1956;DHT22;978;48.314;11.562;2022-11-14T00:20:34;22.40;74.80
1956;DHT22;978;48.314;11.562;2022-11-14T00:23:02;22.40;74.80
1956;DHT22;978;48.314;11.562;2022-11-14T00:25:30;22.40;74.80
1956;DHT22;978;48.314;11.562;2022-11-14T00:27:57;22.40;74.80
1956;DHT22;978;48.314;11.562;2022-11-14T00:30:24;22.40;74.80
1956;DHT22;978;48.314;11.562;2022-11-14T00:32:51;22.40;74.80
1956;DHT22;978;48.314;11.562;2022-11-14T00:35:17;22.40;74.80
1956;DHT22;978;48.314;11.562;2022-11-14T00:37:44;22.40;74.80
1956;DHT22;978;48.314;11.562;2022-11-14T00:40:13;22.40;74.80
1956;DHT22;978;48.314;11.562;2022-11-14T00:42:40;22.40;74.80
1956;DHT22;978;48.314;11.562;2022-11-14T00:45:07;22.40;74.80
1956;DHT22;978;48.314;11.562;2022-11-14T00:47:34;22.40;74.80
1956;DHT22;978;48.314;11.562;2022-11-14T00:50:01;22.40;74.90
1956;DHT22;978;48.314;11.562;2022-11-14T00:52:27;22.40;74.80
1956;DHT22;978;48.314;11.562;2022-11-14T00:54:54;22.40;74.90
1956;DHT22;978;48.314;11.562;2022-11-14T00:57:22;22.40;74.90
1956;DHT22;978;48.314;11.562;2022-11-14T00:59:49;22.40;74.90
1956;DHT22;978;48.314;11.562;2022-11-14T01:02:16;22.40;74.90
1956;DHT22;978;48.314;11.562;2022-11-14T01:04:42;22.40;74.90
1956;DHT22;978;48.314;11.562;2022-11-14T01:07:11;22.40;74.90
1956;DHT22;978;48.314;11.562;2022-11-14T01:09:39;22.40;74.90
1956;DHT22;978;48.314;11.562;2022-11-14T01:12:06;22.40;74.90
1956;DHT22;978;48.314;11.562;2022-11-14T01:14:34;22.40;74.90
1956;DHT22;978;48.314;11.562;2022-11-14T01:17:01;22.40;74.90
1956;DHT22;978;48.314;11.562;2022-11-14T01:19:27;22.40;74.90
1956;DHT22;978;48.314;11.562;2022-11-14T01:21:54;22.40;75.00
1956;DHT22;978;48.314;11.562;2022-11-14T01:24:21;22.40;75.00
1956;DHT22;978;48.314;11.562;2022-11-14T01:26:48;22.40;75.00
1956;DHT22;978;48.314;11.562;2022-11-14T01:29:14;22.40;75.00
1956;DHT22;978;48.314;11.562;2022-11-14T01:31:43;22.40;74.90
1956;DHT22;978;48.314;11.562;2022-11-14T01:34:11;22.40;75.00
1956;DHT22;978;48.314;11.562;2022-11-14T01:36:37;22.40;75.00
1956;DHT22;978;48.314;11.562;2022-11-14T01:39:04;22.40;75.00
1956;DHT22;978;48.314;11.562;2022-11-14T01:41:31;22.40;75.00
1956;DHT22;978;48.314;11.562;2022-11-14T01:43:57;22.40;75.00
1956;DHT22;978;48.314;11.562;2022-11-14T01:46:27;22.40;75.00
1956;DHT22;978;48.314;11.562;2022-11-14T01:48:59;22.40;75.00
1956;DHT22;978;48.314;11.562;2022-11-14T01:51:29;22.40;75.00
1956;DHT22;978;48.314;11.562;2022-11-14T01:53:59;22.40;75.00
1956;DHT22;978;48.314;11.562;2022-11-14T01:56:29;22.40;75.00
1956;DHT22;978;48.314;11.562;2022-11-14T01:59:02;22.40;75.00
1956;DHT22;978;48.314;11.562;2022-11-14T02:01:33;22.40;75.00
1956;DHT22;978;48.314;11.562;2022-11-14T02:04:04;22.40;75.00
1956;DHT22;978;48.314;11.562;2022-11-14T02:06:32;22.40;75.10
1956;DHT22;978;48.314;11.562;2022-11-14T02:09:02;22.40;75.00
1956;DHT22;978;48.314;11.562;2022-11-14T02:11:33;22.40;75.00
1956;DHT22;978;48.314;11.562;2022-11-14T02:14:02;22.40;75.00
1956;DHT22;978;48.314;11.562;2022-11-14T02:16:29;22.40;75.00
1956;DHT22;978;48.314;11.562;2022-11-14T02:18:56;22.40;75.00
1956;DHT22;978;48.314;11.562;2022-11-14T02:21:24;22.40;75.00
1956;DHT22;978;48.314;11.562;2022-11-14T02:23:51;22.40;75.00
1956;DHT22;978;48.314;11.562;2022-11-14T02:26:18;22.40;75.10
1956;DHT22;978;48.314;11.562;2022-11-14T02:28:46;22.40;75.00
1956;DHT22;978;48.314;11.562;2022-11-14T02:31:14;22.40;75.00
1956;DHT22;978;48.314;11.562;2022-11-14T02:33:41;22.40;75.00
1956;DHT22;978;48.314;11.562;2022-11-14T02:36:08;22.40;75.10
1956;DHT22;978;48.314;11.562;2022-11-14T02:38:36;22.40;75.00
1956;DHT22;978;48.314;11.562;2022-11-14T02:41:03;22.40;75.00
1956;DHT22;978;48.314;11.562;2022-11-14T02:43:30;22.40;75.00
1956;DHT22;978;48.314;11.562;2022-11-14T02:45:56;22.40;75.00
1956;DHT22;978;48.314;11.562;2022-11-14T02:48:25;22.40;75.00
1956;DHT22;978;48.314;11.562;2022-11-14T02:50:52;22.40;75.10
1956;DHT22;978;48.314;11.562;2022-11-14T02:53:22;22.40;75.10
1956;DHT22;978;48.314;11.562;2022-11-14T02:55:51;22.40;75.10
1956;DHT22;978;48.314;11.562;2022-11-14T02:58:18;22.40;75.00
1956;DHT22;978;48.314;11.562;2022-11-14T03:00:44;22.40;75.00
1956;DHT22;978;48.314;11.562;2022-11-14T03:03:11;22.40;75.10
1956;DHT22;978;48.314;11.562;2022-11-14T03:05:38;22.40;75.10
1956;DHT22;978;48.314;11.562;2022-11-14T03:08:04;22.40;75.10
1956;DHT22;978;48.314;11.562;2022-11-14T03:10:33;22.40;75.10
1956;DHT22;978;48.314;11.562;2022-11-14T03:13:01;22.40;75.10
1956;DHT22;978;48.314;11.562;2022-11-14T03:15:29;22.40;75.10
1956;DHT22;978;48.314;11.562;2022-11-14T03:17:56;22.40;75.10
1956;DHT22;978;48.314;11.562;2022-11-14T03:20:23;22.40;75.10
1956;DHT22;978;48.314;11.562;2022-11-14T03:22:49;22.40;75.10
1956;DHT22;978;48.314;11.562;2022-11-14T03:25:16;22.40;75.10
1956;DHT22;978;48.314;11.562;2022-11-14T03:27:43;22.40;75.10
1956;DHT22;978;48.314;11.562;2022-11-14T03:30:13;22.40;75.10
1956;DHT22;978;48.314;11.562;2022-11-14T03:32:40;22.40;75.10
1956;DHT22;978;48.314;11.562;2022-11-14T03:35:07;22.40;75.10
1956;DHT22;978;48.314;11.562;2022-11-14T03:37:35;22.40;75.10
1956;DHT22;978;48.314;11.562;2022-11-14T03:40:02;22.40;75.10
1956;DHT22;978;48.314;11.562;2022-11-14T03:42:32;22.40;75.10
1956;DHT22;978;48.314;11.562;2022-11-14T03:44:58;22.40;75.10
1956;DHT22;978;48.314;11.562;2022-11-14T03:47:26;22.40;75.10
1956;DHT22;978;48.314;11.562;2022-11-14T03:49:54;22.40;75.10
1956;DHT22;978;48.314;11.562;2022-11-14T03:52:20;22.40;75.10
1956;DHT22;978;48.314;11.562;2022-11-14T03:54:47;22.40;75.10
1956;DHT22;978;48.314;11.562;2022-11-14T03:57:14;22.40;75.10
1956;DHT22;978;48.314;11.562;2022-11-14T03:59:41;22.40;75.10
1956;DHT22;978;48.314;11.562;2022-11-14T04:02:08;22.40;75.10
1956;DHT22;978;48.314;11.562;2022-11-14T04:04:36;22.40;75.10
1956;DHT22;978;48.314;11.562;2022-11-14T04:07:03;22.40;75.10
1956;DHT22;978;48.314;11.562;2022-11-14T04:09:31;22.40;75.70
1956;DHT22;978;48.314;11.562;2022-11-14T04:11:59;22.40;75.10
1956;DHT22;978;48.314;11.562;2022-11-14T04:14:26;22.40;75.10
1956;DHT22;978;48.314;11.562;2022-11-14T04:16:53;22.40;75.10
1956;DHT22;978;48.314;11.562;2022-11-14T04:19:22;22.40;75.10
1956;DHT22;978;48.314;11.562;2022-11-14T04:21:50;22.40;75.10
1956;DHT22;978;48.314;11.562;2022-11-14T04:24:17;22.40;75.10
1956;DHT22;978;48.314;11.562;2022-11-14T04:26:45;22.40;75.10
1956;DHT22;978;48.314;11.562;2022-11-14T04:29:12;22.40;75.10
1956;DHT22;978;48.314;11.562;2022-11-14T04:31:38;22.40;75.10
1956;DHT22;978;48.314;11.562;2022-11-14T04:34:05;22.40;75.10
1956;DHT22;978;48.314;11.562;2022-11-14T04:36:32;22.40;75.10
1956;DHT22;978;48.314;11.562;2022-11-14T04:39:00;22.40;75.10
1956;DHT22;978;48.314;11.562;2022-11-14T04:41:27;22.40;75.10
1956;DHT22;978;48.314;11.562;2022-11-14T04:43:54;22.40;75.10
1956;DHT22;978;48.314;11.562;2022-11-14T04:46:20;22.40;75.10
1956;DHT22;978;48.314;11.562;2022-11-14T04:48:47;22.40;75.10
1956;DHT22;978;48.314;11.562;2022-11-14T04:51:14;22.40;75.10
1956;DHT22;978;48.314;11.562;2022-11-14T04:53:41;22.40;75.10
1956;DHT22;978;48.314;11.562;2022-11-14T04:56:09;22.40;75.10
1956;DHT22;978;48.314;11.562;2022-11-14T04:58:37;22.40;75.10
1956;DHT22;978;48.314;11.562;2022-11-14T05:01:08;22.40;75.10
1956;DHT22;978;48.314;11.562;2022-11-14T05:03:34;22.40;75.10
1956;DHT22;978;48.314;11.562;2022-11-14T05:06:02;22.40;75.10
1956;DHT22;978;48.314;11.562;2022-11-14T05:08:29;22.40;75.70
1956;DHT22;978;48.314;11.562;2022-11-14T05:10:58;22.40;75.10
1956;DHT22;978;48.314;11.562;2022-11-14T05:13:26;22.40;75.10
1956;DHT22;978;48.314;11.562;2022-11-14T05:15:53;22.40;75.10
1956;DHT22;978;48.314;11.562;2022-11-14T05:18:23;22.40;75.10
1956;DHT22;978;48.314;11.562;2022-11-14T05:20:50;22.40;75.10
1956;DHT22;978;48.314;11.562;2022-11-14T05:23:19;22.40;75.10
1956;DHT22;978;48.314;11.562;2022-11-14T05:25:46;22.40;75.00
1956;DHT22;978;48.314;11.562;2022-11-14T05:28:13;22.40;74.90
1956;DHT22;978;48.314;11.562;2022-11-14T05:30:41;22.40;74.80
1956;DHT22;978;48.314;11.562;2022-11-14T05:33:07;22.40;74.80
1956;DHT22;978;48.314;11.562;2022-11-14T05:35:34;22.40;74.70
1956;DHT22;978;48.314;11.562;2022-11-14T05:38:02;22.40;74.70
1956;DHT22;978;48.314;11.562;2022-11-14T05:40:29;22.40;74.50
1956;DHT22;978;48.314;11.562;2022-11-14T05:42:57;22.40;74.40
1956;DHT22;978;48.314;11.562;2022-11-14T05:45:24;22.40;74.30
1956;DHT22;978;48.314;11.562;2022-11-14T05:47:52;22.40;74.20
1956;DHT22;978;48.314;11.562;2022-11-14T05:50:19;22.40;74.20
1956;DHT22;978;48.314;11.562;2022-11-14T05:52:46;22.40;74.00
1956;DHT22;978;48.314;11.562;2022-11-14T05:55:13;22.40;74.00
1956;DHT22;978;48.314;11.562;2022-11-14T05:57:39;22.40;74.00
1956;DHT22;978;48.314;11.562;2022-11-14T06:00:07;22.40;73.90
1956;DHT22;978;48.314;11.562;2022-11-14T06:02:34;22.40;73.80
1956;DHT22;978;48.314;11.562;2022-11-14T06:05:03;22.40;73.70
1956;DHT22;978;48.314;11.562;2022-11-14T06:07:30;22.40;73.70
1956;DHT22;978;48.314;11.562;2022-11-14T06:09:57;22.40;73.70
1956;DHT22;978;48.314;11.562;2022-11-14T06:12:25;22.40;73.60
1956;DHT22;978;48.314;11.562;2022-11-14T06:14:55;22.40;73.50
1956;DHT22;978;48.314;11.562;2022-11-14T06:17:22;22.30;73.40
1956;DHT22;978;48.314;11.562;2022-11-14T06:19:48;22.40;73.40
1956;DHT22;978;48.314;11.562;2022-11-14T06:22:16;22.40;73.20
1956;DHT22;978;48.314;11.562;2022-11-14T06:24:43;22.30;73.20
1956;DHT22;978;48.314;11.562;2022-11-14T06:27:10;22.40;73.20
1956;DHT22;978;48.314;11.562;2022-11-14T06:29:36;22.40;73.10
1956;DHT22;978;48.314;11.562;2022-11-14T06:32:05;22.40;73.10
1956;DHT22;978;48.314;11.562;2022-11-14T06:34:32;22.30;72.90
1956;DHT22;978;48.314;11.562;2022-11-14T06:37:00;22.30;72.90
1956;DHT22;978;48.314;11.562;2022-11-14T06:39:28;22.40;72.80
1956;DHT22;978;48.314;11.562;2022-11-14T06:41:55;22.30;72.70
1956;DHT22;978;48.314;11.562;2022-11-14T06:44:22;22.30;72.80
1956;DHT22;978;48.314;11.562;2022-11-14T06:46:48;22.30;72.90
1956;DHT22;978;48.314;11.562;2022-11-14T06:49:15;22.40;72.70
1956;DHT22;978;48.314;11.562;2022-11-14T06:51:42;22.30;72.60
1956;DHT22;978;48.314;11.562;2022-11-14T06:54:10;22.30;72.50
1956;DHT22;978;48.314;11.562;2022-11-14T06:56:38;22.40;72.50
1956;DHT22;978;48.314;11.562;2022-11-14T06:59:05;22.40;72.40
1956;DHT22;978;48.314;11.562;2022-11-14T07:01:31;22.40;72.50
1956;DHT22;978;48.314;11.562;2022-11-14T07:03:58;22.40;72.30
1956;DHT22;978;48.314;11.562;2022-11-14T07:06:28;22.40;72.40
1956;DHT22;978;48.314;11.562;2022-11-14T07:08:56;22.40;72.30
1956;DHT22;978;48.314;11.562;2022-11-14T07:11:25;22.40;72.30
1956;DHT22;978;48.314;11.562;2022-11-14T07:13:56;22.30;72.20
1956;DHT22;978;48.314;11.562;2022-11-14T07:16:24;22.40;72.30
1956;DHT22;978;48.314;11.562;2022-11-14T07:18:55;22.40;72.20
1956;DHT22;978;48.314;11.562;2022-11-14T07:21:22;22.40;72.20
1956;DHT22;978;48.314;11.562;2022-11-14T07:23:49;22.30;72.20
1956;DHT22;978;48.314;11.562;2022-11-14T07:26:17;22.30;72.20
1956;DHT22;978;48.314;11.562;2022-11-14T07:28:46;22.30;72.00
1956;DHT22;978;48.314;11.562;2022-11-14T07:31:16;22.30;72.00
1956;DHT22;978;48.314;11.562;2022-11-14T07:33:45;22.40;72.00
1956;DHT22;978;48.314;11.562;2022-11-14T07:36:13;22.30;72.50
1956;DHT22;978;48.314;11.562;2022-11-14T07:38:40;22.40;71.90
1956;DHT22;978;48.314;11.562;2022-11-14T07:41:09;22.30;71.90
1956;DHT22;978;48.314;11.562;2022-11-14T07:43:36;22.40;71.80
1956;DHT22;978;48.314;11.562;2022-11-14T07:46:07;22.40;71.80
1956;DHT22;978;48.314;11.562;2022-11-14T07:48:38;22.30;71.70
1956;DHT22;978;48.314;11.562;2022-11-14T07:51:06;22.30;71.70
1956;DHT22;978;48.314;11.562;2022-11-14T07:53:33;22.30;71.80
1956;DHT22;978;48.314;11.562;2022-11-14T07:56:02;22.40;71.80
1956;DHT22;978;48.314;11.562;2022-11-14T07:58:30;22.30;72.40
1956;DHT22;978;48.314;11.562;2022-11-14T08:00:59;22.40;71.70
1956;DHT22;978;48.314;11.562;2022-11-14T08:03:26;22.30;71.70
1956;DHT22;978;48.314;11.562;2022-11-14T08:06:00;22.30;71.60
1956;DHT22;978;48.314;11.562;2022-11-14T08:08:27;22.30;71.50
1956;DHT22;978;48.314;11.562;2022-11-14T08:10:55;22.30;71.60
1956;DHT22;978;48.314;11.562;2022-11-14T08:13:23;22.30;71.70
1956;DHT22;978;48.314;11.562;2022-11-14T08:15:50;22.40;71.80
1956;DHT22;978;48.314;11.562;2022-11-14T08:18:17;22.40;71.80
1956;DHT22;978;48.314;11.562;2022-11-14T08:20:44;22.40;71.90
1956;DHT22;978;48.314;11.562;2022-11-14T08:23:12;22.30;71.90
1956;DHT22;978;48.314;11.562;2022-11-14T08:25:39;22.40;72.00
1956;DHT22;978;48.314;11.562;2022-11-14T08:28:06;22.40;72.10
1956;DHT22;978;48.314;11.562;2022-11-14T08:30:33;22.40;72.10
1956;DHT22;978;48.314;11.562;2022-11-14T08:33:02;22.40;72.10
1956;DHT22;978;48.314;11.562;2022-11-14T08:35:30;22.40;72.10
1956;DHT22;978;48.314;11.562;2022-11-14T08:37:59;22.40;72.00
1956;DHT22;978;48.314;11.562;2022-11-14T08:40:27;22.40;72.10
1956;DHT22;978;48.314;11.562;2022-11-14T08:42:58;22.40;72.20
1956;DHT22;978;48.314;11.562;2022-11-14T08:45:26;22.40;72.30
1956;DHT22;978;48.314;11.562;2022-11-14T08:47:53;22.40;72.30
1956;DHT22;978;48.314;11.562;2022-11-14T08:50:20;22.40;72.30
1956;DHT22;978;48.314;11.562;2022-11-14T08:52:50;22.40;72.50
1956;DHT22;978;48.314;11.562;2022-11-14T08:55:17;22.40;72.60
1956;DHT22;978;48.314;11.562;2022-11-14T08:57:46;22.40;72.60
1956;DHT22;978;48.314;11.562;2022-11-14T09:00:14;22.40;72.60
1956;DHT22;978;48.314;11.562;2022-11-14T09:02:41;22.40;72.70
1956;DHT22;978;48.314;11.562;2022-11-14T09:05:08;22.40;72.80
1956;DHT22;978;48.314;11.562;2022-11-14T09:07:35;22.40;72.80
1956;DHT22;978;48.314;11.562;2022-11-14T09:10:02;22.40;72.80
1956;DHT22;978;48.314;11.562;2022-11-14T09:12:29;22.40;72.80
1956;DHT22;978;48.314;11.562;2022-11-14T09:15:00;22.40;72.80
1956;DHT22;978;48.314;11.562;2022-11-14T09:17:28;22.40;72.80
1956;DHT22;978;48.314;11.562;2022-11-14T09:19:55;22.40;72.80
1956;DHT22;978;48.314;11.562;2022-11-14T09:22:21;22.40;72.80
1956;DHT22;978;48.314;11.562;2022-11-14T09:24:48;22.40;72.80
1956;DHT22;978;48.314;11.562;2022-11-14T09:27:16;22.40;72.30
1956;DHT22;978;48.314;11.562;2022-11-14T09:29:43;22.40;72.60
1956;DHT22;978;48.314;11.562;2022-11-14T09:32:11;22.30;72.70
1956;DHT22;978;48.314;11.562;2022-11-14T09:34:38;22.40;72.90
1956;DHT22;978;48.314;11.562;2022-11-14T09:37:07;22.40;72.80
1956;DHT22;978;48.314;11.562;2022-11-14T09:39:34;22.40;72.60
1956;DHT22;978;48.314;11.562;2022-11-14T09:42:15;22.40;72.40
1956;DHT22;978;48.314;11.562;2022-11-14T09:44:53;22.40;72.10
1956;DHT22;978;48.314;11.562;2022-11-14T09:47:24;22.40;71.90
1956;DHT22;978;48.314;11.562;2022-11-14T09:49:57;22.40;71.90
1956;DHT22;978;48.314;11.562;2022-11-14T09:52:31;22.40;71.70
1956;DHT22;978;48.314;11.562;2022-11-14T09:55:08;22.40;71.60
1956;DHT22;978;48.314;11.562;2022-11-14T09:57:37;22.40;71.50
1956;DHT22;978;48.314;11.562;2022-11-14T10:00:12;22.40;71.50
1956;DHT22;978;48.314;11.562;2022-11-14T10:02:58;22.40;71.40
1956;DHT22;978;48.314;11.562;2022-11-14T10:05:50;22.40;71.30
1956;DHT22;978;48.314;11.562;2022-11-14T10:08:47;22.40;71.20
1956;DHT22;978;48.314;11.562;2022-11-14T10:11:18;22.40;71.10
1956;DHT22;978;48.314;11.562;2022-11-14T10:13:59;22.40;71.00
1956;DHT22;978;48.314;11.562;2022-11-14T10:16:35;22.40;70.90
1956;DHT22;978;48.314;11.562;2022-11-14T10:19:17;22.40;70.80
1956;DHT22;978;48.314;11.562;2022-11-14T10:21:55;22.40;70.80
1956;DHT22;978;48.314;11.562;2022-11-14T10:24:50;22.40;70.70
1956;DHT22;978;48.314;11.562;2022-11-14T10:27:26;22.40;70.70
1956;DHT22;978;48.314;11.562;2022-11-14T10:30:03;22.40;70.60
1956;DHT22;978;48.314;11.562;2022-11-14T10:32:41;22.40;70.60
1956;DHT22;978;48.314;11.562;2022-11-14T10:35:14;22.40;70.50
1956;DHT22;978;48.314;11.562;2022-11-14T10:37:50;22.40;70.60
1956;DHT22;978;48.314;11.562;2022-11-14T10:40:23;22.40;70.70
1956;DHT22;978;48.314;11.562;2022-11-14T10:42:54;22.40;70.90
1956;DHT22;978;48.314;11.562;2022-11-14T10:45:25;22.40;70.90
1956;DHT22;978;48.314;11.562;2022-11-14T10:47:56;22.40;71.00
1956;DHT22;978;48.314;11.562;2022-11-14T10:50:34;22.40;71.10
1956;DHT22;978;48.314;11.562;2022-11-14T10:53:15;22.40;71.20
1956;DHT22;978;48.314;11.562;2022-11-14T10:55:45;22.40;71.30
1956;DHT22;978;48.314;11.562;2022-11-14T10:58:15;22.40;71.20
1956;DHT22;978;48.314;11.562;2022-11-14T11:00:42;22.40;71.30
1956;DHT22;978;48.314;11.562;2022-11-14T11:03:09;22.40;71.30
1956;DHT22;978;48.314;11.562;2022-11-14T11:05:46;22.40;71.40
1956;DHT22;978;48.314;11.562;2022-11-14T11:08:18;22.40;71.40
1956;DHT22;978;48.314;11.562;2022-11-14T11:11:03;22.40;71.40
1956;DHT22;978;48.314;11.562;2022-11-14T11:13:52;22.40;71.40
1956;DHT22;978;48.314;11.562;2022-11-14T11:16:21;22.40;71.40
1956;DHT22;978;48.314;11.562;2022-11-14T11:18:48;22.40;71.40
1956;DHT22;978;48.314;11.562;2022-11-14T11:21:18;22.40;71.40
1956;DHT22;978;48.314;11.562;2022-11-14T11:23:50;22.40;71.50
1956;DHT22;978;48.314;11.562;2022-11-14T11:26:19;22.40;71.50
1956;DHT22;978;48.314;11.562;2022-11-14T11:29:02;22.40;71.60
1956;DHT22;978;48.314;11.562;2022-11-14T11:31:48;22.40;71.60
1956;DHT22;978;48.314;11.562;2022-11-14T11:34:20;22.40;71.60
1956;DHT22;978;48.314;11.562;2022-11-14T11:36:52;22.40;71.70
1956;DHT22;978;48.314;11.562;2022-11-14T11:39:26;22.40;71.60
1956;DHT22;978;48.314;11.562;2022-11-14T11:41:55;22.40;71.70
1956;DHT22;978;48.314;11.562;2022-11-14T11:44:26;22.40;71.70
1956;DHT22;978;48.314;11.562;2022-11-14T11:46:57;22.40;71.80
1956;DHT22;978;48.314;11.562;2022-11-14T11:49:34;22.40;71.80
1956;DHT22;978;48.314;11.562;2022-11-14T11:52:08;22.40;71.80
1956;DHT22;978;48.314;11.562;2022-11-14T11:54:47;22.40;71.90
1956;DHT22;978;48.314;11.562;2022-11-14T11:57:17;22.40;71.90
1956;DHT22;978;48.314;11.562;2022-11-14T11:59:47;22.40;71.90
1956;DHT22;978;48.314;11.562;2022-11-14T12:02:21;22.40;71.90
1956;DHT22;978;48.314;11.562;2022-11-14T12:04:52;22.40;71.90
1956;DHT22;978;48.314;11.562;2022-11-14T12:07:28;22.40;71.90
1956;DHT22;978;48.314;11.562;2022-11-14T12:09:57;22.40;71.80
1956;DHT22;978;48.314;11.562;2022-11-14T12:12:42;22.40;71.70
1956;DHT22;978;48.314;11.562;2022-11-14T12:15:17;22.40;71.60
1956;DHT22;978;48.314;11.562;2022-11-14T12:18:21;22.40;71.50
1956;DHT22;978;48.314;11.562;2022-11-14T12:21:04;22.40;71.40
1956;DHT22;978;48.314;11.562;2022-11-14T12:27:05;22.40;71.40
1956;DHT22;978;48.314;11.562;2022-11-14T12:29:55;22.40;71.40
1956;DHT22;978;48.314;11.562;2022-11-14T12:32:30;22.40;71.40
1956;DHT22;978;48.314;11.562;2022-11-14T12:34:58;22.40;71.40
1956;DHT22;978;48.314;11.562;2022-11-14T12:37:30;22.40;71.40
1956;DHT22;978;48.314;11.562;2022-11-14T12:40:02;22.40;71.40
1956;DHT22;978;48.314;11.562;2022-11-14T12:42:31;22.40;71.40
1956;DHT22;978;48.314;11.562;2022-11-14T12:44:59;22.40;71.50
1956;DHT22;978;48.314;11.562;2022-11-14T12:47:27;22.40;71.50
1956;DHT22;978;48.314;11.562;2022-11-14T12:50:02;22.40;71.50
1956;DHT22;978;48.314;11.562;2022-11-14T12:52:42;22.40;71.50
1956;DHT22;978;48.314;11.562;2022-11-14T12:58:15;22.40;71.50
1956;DHT22;978;48.314;11.562;2022-11-14T13:01:02;22.40;71.50
1956;DHT22;978;48.314;11.562;2022-11-14T13:03:46;22.40;71.50
1956;DHT22;978;48.314;11.562;2022-11-14T13:06:18;22.40;71.50
1956;DHT22;978;48.314;11.562;2022-11-14T13:09:14;22.40;71.50
1956;DHT22;978;48.314;11.562;2022-11-14T13:11:44;22.40;71.50
1956;DHT22;978;48.314;11.562;2022-11-14T13:14:30;22.40;71.50
1956;DHT22;978;48.314;11.562;2022-11-14T13:17:25;22.40;71.50
1956;DHT22;978;48.314;11.562;2022-11-14T13:20:28;22.40;71.50
1956;DHT22;978;48.314;11.562;2022-11-14T13:26:41;22.40;71.50
1956;DHT22;978;48.314;11.562;2022-11-14T13:32:54;22.40;71.40
1956;DHT22;978;48.314;11.562;2022-11-14T13:35:44;22.40;71.40
1956;DHT22;978;48.314;11.562;2022-11-14T13:38:33;22.40;71.40
1956;DHT22;978;48.314;11.562;2022-11-14T13:44:33;22.40;71.40
1956;DHT22;978;48.314;11.562;2022-11-14T13:47:21;22.40;71.40
1956;DHT22;978;48.314;11.562;2022-11-14T13:50:05;22.40;71.30
1956;DHT22;978;48.314;11.562;2022-11-14T13:52:44;22.40;71.40
1956;DHT22;978;48.314;11.562;2022-11-14T13:55:19;22.40;71.30
1956;DHT22;978;48.314;11.562;2022-11-14T13:57:57;22.40;71.30
1956;DHT22;978;48.314;11.562;2022-11-14T14:00:30;22.40;71.30
1956;DHT22;978;48.314;11.562;2022-11-14T14:03:31;22.40;71.30
1956;DHT22;978;48.314;11.562;2022-11-14T14:06:19;22.40;71.30
1956;DHT22;978;48.314;11.562;2022-11-14T14:09:02;22.40;71.30
1956;DHT22;978;48.314;11.562;2022-11-14T14:11:46;22.40;71.30
1956;DHT22;978;48.314;11.562;2022-11-14T14:14:35;22.40;71.30
1956;DHT22;978;48.314;11.562;2022-11-14T14:17:10;22.40;71.30
1956;DHT22;978;48.314;11.562;2022-11-14T14:19:49;22.40;71.30
1956;DHT22;978;48.314;11.562;2022-11-14T14:22:28;22.40;71.30
1956;DHT22;978;48.314;11.562;2022-11-14T14:25:04;22.40;71.30
1956;DHT22;978;48.314;11.562;2022-11-14T14:27:43;22.40;71.30
1956;DHT22;978;48.314;11.562;2022-11-14T14:30:12;22.40;71.30
1956;DHT22;978;48.314;11.562;2022-11-14T14:32:40;22.40;71.30
1956;DHT22;978;48.314;11.562;2022-11-14T14:35:27;22.40;71.30
1956;DHT22;978;48.314;11.562;2022-11-14T14:37:58;22.40;71.30
1956;DHT22;978;48.314;11.562;2022-11-14T14:40:28;22.40;71.30
1956;DHT22;978;48.314;11.562;2022-11-14T14:43:01;22.40;71.20
1956;DHT22;978;48.314;11.562;2022-11-14T14:45:29;22.40;71.20
1956;DHT22;978;48.314;11.562;2022-11-14T14:48:00;22.40;71.30
1956;DHT22;978;48.314;11.562;2022-11-14T14:50:32;22.40;71.30
1956;DHT22;978;48.314;11.562;2022-11-14T14:53:03;22.40;71.30
1956;DHT22;978;48.314;11.562;2022-11-14T14:55:31;22.40;71.30
1956;DHT22;978;48.314;11.562;2022-11-14T14:58:12;22.40;71.30
1956;DHT22;978;48.314;11.562;2022-11-14T15:00:50;22.40;71.30
1956;DHT22;978;48.314;11.562;2022-11-14T15:03:17;22.40;71.20
1956;DHT22;978;48.314;11.562;2022-11-14T15:05:44;22.40;71.20
1956;DHT22;978;48.314;11.562;2022-11-14T15:08:14;22.40;71.30
1956;DHT22;978;48.314;11.562;2022-11-14T15:10:42;22.40;71.30
1956;DHT22;978;48.314;11.562;2022-11-14T15:13:14;22.40;71.30
1956;DHT22;978;48.314;11.562;2022-11-14T15:15:43;22.40;71.30
1956;DHT22;978;48.314;11.562;2022-11-14T15:18:17;22.40;71.30
1956;DHT22;978;48.314;11.562;2022-11-14T15:21:05;22.40;71.30
1956;DHT22;978;48.314;11.562;2022-11-14T15:23:36;22.40;71.30
1956;DHT22;978;48.314;11.562;2022-11-14T15:26:09;22.40;71.30
1956;DHT22;978;48.314;11.562;2022-11-14T15:28:36;22.40;71.20
1956;DHT22;978;48.314;11.562;2022-11-14T15:31:05;22.40;71.20
1956;DHT22;978;48.314;11.562;2022-11-14T15:33:34;22.40;71.20
1956;DHT22;978;48.314;11.562;2022-11-14T15:36:06;22.40;71.20
1956;DHT22;978;48.314;11.562;2022-11-14T15:38:37;22.40;71.20
1956;DHT22;978;48.314;11.562;2022-11-14T15:41:26;22.40;71.20
1956;DHT22;978;48.314;11.562;2022-11-14T15:43:54;22.40;71.20
1956;DHT22;978;48.314;11.562;2022-11-14T15:46:33;22.40;71.20
1956;DHT22;978;48.314;11.562;2022-11-14T15:49:09;22.40;71.20
1956;DHT22;978;48.314;11.562;2022-11-14T15:51:41;22.40;71.80
1956;DHT22;978;48.314;11.562;2022-11-14T15:54:28;22.40;71.20
1956;DHT22;978;48.314;11.562;2022-11-14T15:56:56;22.40;71.10
1956;DHT22;978;48.314;11.562;2022-11-14T15:59:24;22.40;71.20
1956;DHT22;978;48.314;11.562;2022-11-14T16:01:55;22.40;71.20
1956;DHT22;978;48.314;11.562;2022-11-14T16:04:26;22.40;71.20
1956;DHT22;978;48.314;11.562;2022-11-14T16:06:53;22.40;71.20
1956;DHT22;978;48.314;11.562;2022-11-14T16:09:20;22.40;71.10
1956;DHT22;978;48.314;11.562;2022-11-14T16:11:48;22.40;71.20
1956;DHT22;978;48.314;11.562;2022-11-14T16:14:15;22.40;71.20
1956;DHT22;978;48.314;11.562;2022-11-14T16:16:42;22.40;71.10
1956;DHT22;978;48.314;11.562;2022-11-14T16:19:12;22.40;71.10
1956;DHT22;978;48.314;11.562;2022-11-14T16:21:41;22.40;71.70
1956;DHT22;978;48.314;11.562;2022-11-14T16:24:14;22.40;71.10
1956;DHT22;978;48.314;11.562;2022-11-14T16:26:42;22.40;71.10
1956;DHT22;978;48.314;11.562;2022-11-14T16:29:10;22.40;71.10
1956;DHT22;978;48.314;11.562;2022-11-14T16:31:37;22.40;71.10
1956;DHT22;978;48.314;11.562;2022-11-14T16:34:04;22.40;71.10
1956;DHT22;978;48.314;11.562;2022-11-14T16:36:31;22.40;71.00
1956;DHT22;978;48.314;11.562;2022-11-14T16:39:01;22.40;71.10
1956;DHT22;978;48.314;11.562;2022-11-14T16:41:30;22.40;71.00